Time;durP1;ratioP1;P1;durP2;ratioP2;P2;SDS_P1;SDS_P2;PMS_P1;PMS_P2;Temp;Humidity;BMP_temperature;BMP_pressure;BME280_temperature;BME280_humidity;BME280_pressure;Samples;Min_cycle;Max_cycle;Signal;HPM_P1;HPM_P2
2023/10/23 00:01:55;;;;;;;2.07;1.27;;;;;;;;;;5114943;28;20410;-86
2023/10/23 00:04:20;;;;;;;4.30;2.27;;;;;;;;;;5114974;28;20485;-84
2023/10/23 00:06:46;;;;;;;4.10;2.23;;;;;;;;;;5114937;28;20894;-85
2023/10/23 00:09:13;;;;;;;3.13;1.10;;;;;;;;;;5114865;28;20420;-85
2023/10/23 00:11:39;;;;;;;2.57;1.37;;;;;;;;;;5114888;28;20164;-82
2023/10/23 00:14:05;;;;;;;2.77;1.33;;;;;;;;;;5114493;28;20413;-85
2023/10/23 00:16:31;;;;;;;3.43;1.27;;;;;;;;;;5114633;28;20168;-83
2023/10/23 00:18:57;;;;;;;2.60;1.47;;;;;;;;;;5114050;28;20469;-83
2023/10/23 00:21:23;;;;;;;2.77;1.47;;;;;;;;;;5114816;28;20488;-83
2023/10/23 00:23:50;;;;;;;2.27;1.53;;;;;;;;;;5114808;28;20899;-84
2023/10/23 00:26:16;;;;;;;3.93;1.27;;;;;;;;;;5114631;28;20831;-83
2023/10/23 00:28:42;;;;;;;2.80;1.43;;;;;;;;;;5114343;28;20479;-82
2023/10/23 00:31:08;;;;;;;4.17;1.23;;;;;;;;;;5114377;28;20417;-83
2023/10/23 00:33:33;;;;;;;2.40;1.37;;;;;;;;;;5114252;28;20459;-84
2023/10/23 00:36:00;;;;;;;3.50;1.60;;;;;;;;;;5112769;28;20520;-84
2023/10/23 00:38:28;;;;;;;2.67;1.37;;;;;;;;;;5114374;28;20558;-84
2023/10/23 00:40:54;;;;;;;2.60;1.13;;;;;;;;;;5114596;28;20504;-83
2023/10/23 00:43:21;;;;;;;2.90;0.80;;;;;;;;;;5114373;28;20503;-83
2023/10/23 00:45:50;;;;;;;3.90;1.37;;;;;;;;;;5114123;28;20470;-84
2023/10/23 00:48:19;;;;;;;1.77;0.50;;;;;;;;;;5114310;28;20411;-83
2023/10/23 00:50:45;;;;;;;2.43;1.47;;;;;;;;;;5114312;28;20416;-84
2023/10/23 00:53:11;;;;;;;1.70;1.20;;;;;;;;;;5114349;28;20422;-82
2023/10/23 00:55:37;;;;;;;1.73;0.87;;;;;;;;;;5114356;28;20412;-84
2023/10/23 00:58:03;;;;;;;2.60;1.57;;;;;;;;;;5113954;28;20468;-82
2023/10/23 01:00:29;;;;;;;2.20;1.07;;;;;;;;;;5113679;28;20444;-82
2023/10/23 01:02:55;;;;;;;1.60;0.83;;;;;;;;;;5095827;28;20417;-82
2023/10/23 01:05:21;;;;;;;1.57;0.90;;;;;;;;;;5114114;28;20884;-81
2023/10/23 01:07:46;;;;;;;1.83;1.03;;;;;;;;;;5114100;28;20412;-82
2023/10/23 01:10:12;;;;;;;4.60;1.20;;;;;;;;;;5113310;28;20760;-81
2023/10/23 01:12:40;;;;;;;3.17;1.50;;;;;;;;;;5113840;28;20415;-81
2023/10/23 01:15:07;;;;;;;1.43;0.73;;;;;;;;;;5113568;28;20437;-81
2023/10/23 01:17:33;;;;;;;1.97;0.80;;;;;;;;;;5113735;28;20458;-83
2023/10/23 01:19:58;;;;;;;1.53;1.00;;;;;;;;;;5113503;28;20464;-82
2023/10/23 01:22:24;;;;;;;4.00;1.80;;;;;;;;;;5113679;28;20405;-81
2023/10/23 01:24:51;;;;;;;2.57;1.10;;;;;;;;;;5113735;28;20412;-83
2023/10/23 01:27:17;;;;;;;3.40;1.63;;;;;;;;;;5097521;28;20420;-81
2023/10/23 01:29:43;;;;;;;3.13;1.63;;;;;;;;;;5113336;28;20498;-83
2023/10/23 01:32:10;;;;;;;3.10;2.00;;;;;;;;;;5113332;28;20566;-81
2023/10/23 01:34:36;;;;;;;2.80;1.93;;;;;;;;;;5113460;28;20908;-82
2023/10/23 01:37:02;;;;;;;3.50;2.10;;;;;;;;;;5095182;28;20476;-81
2023/10/23 01:39:28;;;;;;;3.07;1.47;;;;;;;;;;5113622;28;20983;-81
2023/10/23 01:41:54;;;;;;;3.73;2.27;;;;;;;;;;5113539;28;20545;-82
2023/10/23 01:44:20;;;;;;;2.13;1.63;;;;;;;;;;5113110;28;20735;-82
2023/10/23 01:46:46;;;;;;;2.50;1.40;;;;;;;;;;5113116;28;20421;-81
2023/10/23 01:49:12;;;;;;;2.17;0.90;;;;;;;;;;5113231;28;20395;-81
2023/10/23 01:51:38;;;;;;;3.00;1.20;;;;;;;;;;5113482;28;20405;-81
2023/10/23 01:54:04;;;;;;;5.63;1.17;;;;;;;;;;5113476;28;20408;-81
2023/10/23 01:56:30;;;;;;;1.87;1.13;;;;;;;;;;5113049;28;20421;-81
2023/10/23 01:58:55;;;;;;;2.30;1.37;;;;;;;;;;5094576;28;20530;-82
2023/10/23 02:01:22;;;;;;;1.47;1.10;;;;;;;;;;5113137;28;20415;-81
2023/10/23 02:03:49;;;;;;;2.30;1.00;;;;;;;;;;5113302;28;20415;-80
2023/10/23 02:06:15;;;;;;;3.53;0.87;;;;;;;;;;5095045;28;20488;-82
2023/10/23 02:08:41;;;;;;;3.13;1.17;;;;;;;;;;5113038;28;20418;-81
2023/10/23 02:11:08;;;;;;;2.07;1.40;;;;;;;;;;5113112;28;20556;-82
2023/10/23 02:13:34;;;;;;;1.80;1.23;;;;;;;;;;5112816;28;20510;-83
2023/10/23 02:16:00;;;;;;;2.07;1.00;;;;;;;;;;5113141;28;20424;-81
2023/10/23 02:18:26;;;;;;;1.90;0.93;;;;;;;;;;5113089;28;20462;-83
2023/10/23 02:20:52;;;;;;;4.23;1.30;;;;;;;;;;5112879;28;20986;-81
2023/10/23 02:23:18;;;;;;;2.53;1.40;;;;;;;;;;5116262;28;20410;-82
2023/10/23 02:25:44;;;;;;;2.43;0.90;;;;;;;;;;5117052;28;20398;-81
2023/10/23 02:28:09;;;;;;;1.80;0.97;;;;;;;;;;5117098;28;20411;-80
2023/10/23 02:30:36;;;;;;;1.80;1.03;;;;;;;;;;5116704;28;20887;-80
2023/10/23 02:33:02;;;;;;;3.03;1.60;;;;;;;;;;5117059;28;20783;-80
2023/10/23 02:35:28;;;;;;;1.67;0.90;;;;;;;;;;5116933;28;20410;-81
2023/10/23 02:37:53;;;;;;;2.60;1.23;;;;;;;;;;5116766;28;20474;-79
2023/10/23 02:40:19;;;;;;;5.73;1.80;;;;;;;;;;5116547;28;20398;-80
2023/10/23 02:42:45;;;;;;;2.60;1.07;;;;;;;;;;5116805;28;20471;-80
2023/10/23 02:45:13;;;;;;;2.63;1.70;;;;;;;;;;5116513;28;20821;-80
2023/10/23 02:47:39;;;;;;;1.97;1.07;;;;;;;;;;5098408;28;20925;-80
2023/10/23 02:50:05;;;;;;;2.60;1.97;;;;;;;;;;5116433;28;20419;-80
2023/10/23 02:52:31;;;;;;;2.77;1.80;;;;;;;;;;5116619;28;20419;-80
2023/10/23 02:54:57;;;;;;;3.20;1.60;;;;;;;;;;5116349;28;20471;-80
2023/10/23 02:57:23;;;;;;;2.10;1.80;;;;;;;;;;5116445;28;20527;-79
2023/10/23 02:59:49;;;;;;;6.03;1.77;;;;;;;;;;5115095;28;20405;-81
2023/10/23 03:02:16;;;;;;;2.37;1.80;;;;;;;;;;5116102;28;20600;-80
2023/10/23 03:04:43;;;;;;;4.83;1.70;;;;;;;;;;5116566;28;20410;-80
2023/10/23 03:07:09;;;;;;;2.70;1.83;;;;;;;;;;5116302;28;20792;-79
2023/10/23 03:09:36;;;;;;;2.80;1.87;;;;;;;;;;5116492;28;20876;-79
2023/10/23 03:12:02;;;;;;;3.97;2.37;;;;;;;;;;5116446;28;20415;-79
2023/10/23 03:14:28;;;;;;;3.80;2.10;;;;;;;;;;5097397;28;21128;-79
2023/10/23 03:16:54;;;;;;;5.80;2.50;;;;;;;;;;5116271;28;20467;-79
2023/10/23 03:19:22;;;;;;;3.80;1.93;;;;;;;;;;5116019;28;20465;-82
2023/10/23 03:21:48;;;;;;;3.43;1.57;;;;;;;;;;5116190;28;20886;-79
2023/10/23 03:24:15;;;;;;;2.00;1.40;;;;;;;;;;5116178;28;20455;-82
2023/10/23 03:26:41;;;;;;;4.30;2.70;;;;;;;;;;5116034;28;20414;-79
2023/10/23 03:29:07;;;;;;;3.40;1.83;;;;;;;;;;5115754;28;20426;-84
2023/10/23 03:31:33;;;;;;;2.83;1.40;;;;;;;;;;5097724;28;20408;-82
2023/10/23 03:34:02;;;;;;;2.97;2.00;;;;;;;;;;5115558;28;20426;-85
2023/10/23 03:36:28;;;;;;;3.43;1.67;;;;;;;;;;5115835;28;20447;-84
2023/10/23 03:38:54;;;;;;;2.80;1.97;;;;;;;;;;5115540;28;21000;-82
2023/10/23 03:41:21;;;;;;;3.60;1.47;;;;;;;;;;5115742;28;20816;-84
2023/10/23 03:43:47;;;;;;;7.20;2.30;;;;;;;;;;5115204;28;20412;-81
2023/10/23 03:46:13;;;;;;;3.77;2.30;;;;;;;;;;5115298;28;20979;-81
2023/10/23 03:48:39;;;;;;;4.90;2.53;;;;;;;;;;5115391;28;20405;-82
2023/10/23 03:51:05;;;;;;;4.07;2.30;;;;;;;;;;5115321;28;20409;-82
2023/10/23 03:53:31;;;;;;;3.67;2.77;;;;;;;;;;5115672;28;20845;-82
2023/10/23 03:55:57;;;;;;;4.07;3.67;;;;;;;;;;5115508;28;20411;-83
2023/10/23 03:58:23;;;;;;;3.70;2.17;;;;;;;;;;5115180;28;20991;-82
2023/10/23 04:00:52;;;;;;;5.60;3.50;;;;;;;;;;5115424;28;20435;-84
2023/10/23 04:03:18;;;;;;;4.67;3.27;;;;;;;;;;5115356;28;20419;-83
2023/10/23 04:05:44;;;;;;;4.33;3.20;;;;;;;;;;5115522;28;20427;-85
2023/10/23 04:08:10;;;;;;;4.60;3.40;;;;;;;;;;5115368;28;20438;-83
2023/10/23 04:10:36;;;;;;;3.80;2.60;;;;;;;;;;5115375;28;20755;-81
2023/10/23 04:13:02;;;;;;;5.80;3.60;;;;;;;;;;5115308;28;20419;-80
2023/10/23 04:15:28;;;;;;;4.40;3.70;;;;;;;;;;5114745;28;20405;-82
2023/10/23 04:17:54;;;;;;;4.30;3.83;;;;;;;;;;5115098;28;20519;-79
2023/10/23 04:20:20;;;;;;;4.97;2.47;;;;;;;;;;5114868;28;20989;-85
2023/10/23 04:22:46;;;;;;;3.97;2.57;;;;;;;;;;5096841;28;20460;-79
2023/10/23 04:25:12;;;;;;;2.13;1.10;;;;;;;;;;5115016;28;20441;-80
2023/10/23 04:27:38;;;;;;;2.03;1.63;;;;;;;;;;5114931;28;21010;-79
2023/10/23 04:30:04;;;;;;;3.33;2.40;;;;;;;;;;5114509;28;20414;-78
2023/10/23 04:32:30;;;;;;;6.80;2.63;;;;;;;;;;5114838;28;20459;-79
2023/10/23 04:34:56;;;;;;;3.43;2.47;;;;;;;;;;5114757;28;20449;-82
2023/10/23 04:37:22;;;;;;;7.03;3.67;;;;;;;;;;5114530;28;20557;-79
2023/10/23 04:39:48;;;;;;;6.33;2.57;;;;;;;;;;5114509;28;20451;-81
2023/10/23 04:42:14;;;;;;;4.20;3.20;;;;;;;;;;5114612;28;20411;-77
2023/10/23 04:44:40;;;;;;;4.17;2.90;;;;;;;;;;5113325;28;20418;-83
2023/10/23 04:47:06;;;;;;;4.73;3.37;;;;;;;;;;5114584;28;20525;-80
2023/10/23 04:49:32;;;;;;;6.87;3.50;;;;;;;;;;5114540;28;20929;-80
2023/10/23 04:51:58;;;;;;;6.13;3.60;;;;;;;;;;5114259;28;20898;-80
2023/10/23 04:54:24;;;;;;;8.07;3.70;;;;;;;;;;5096019;28;20494;-81
2023/10/23 04:56:49;;;;;;;5.17;3.37;;;;;;;;;;5114108;28;20421;-81
2023/10/23 04:59:15;;;;;;;5.60;3.40;;;;;;;;;;5113951;28;20415;-79
2023/10/23 05:01:41;;;;;;;9.60;4.13;;;;;;;;;;5114155;28;20409;-79
2023/10/23 05:04:07;;;;;;;5.87;3.10;;;;;;;;;;5114129;28;20777;-79
2023/10/23 05:06:33;;;;;;;5.90;3.90;;;;;;;;;;5114061;28;20418;-79
2023/10/23 05:08:59;;;;;;;6.73;3.70;;;;;;;;;;5114123;28;20834;-78
2023/10/23 05:11:25;;;;;;;45.40;7.53;;;;;;;;;;5114213;28;20409;-80
2023/10/23 05:13:51;;;;;;;5.60;3.70;;;;;;;;;;5095442;28;20413;-80
2023/10/23 05:16:17;;;;;;;7.77;4.27;;;;;;;;;;5113536;28;20917;-79
2023/10/23 05:18:43;;;;;;;9.93;4.73;;;;;;;;;;5113703;28;20476;-78
2023/10/23 05:21:13;;;;;;;13.20;5.10;;;;;;;;;;5113941;28;20419;-78
2023/10/23 05:23:39;;;;;;;7.57;5.07;;;;;;;;;;5113760;28;20418;-78
2023/10/23 05:26:06;;;;;;;8.23;4.37;;;;;;;;;;5113525;28;20403;-78
2023/10/23 05:28:32;;;;;;;6.03;4.30;;;;;;;;;;5094985;28;20453;-79
2023/10/23 05:30:58;;;;;;;10.43;4.20;;;;;;;;;;5113716;28;20959;-78
2023/10/23 05:33:25;;;;;;;5.90;4.00;;;;;;;;;;5113754;28;20416;-78
2023/10/23 05:36:00;;;;;;;10.80;5.00;;;;;;;;;;5113621;28;20409;-79
2023/10/23 05:38:26;;;;;;;7.60;4.03;;;;;;;;;;5113695;28;20472;-79
2023/10/23 05:40:56;;;;;;;9.13;3.30;;;;;;;;;;5113420;28;20493;-79
2023/10/23 05:43:22;;;;;;;5.00;3.20;;;;;;;;;;5113191;28;20418;-78
2023/10/23 05:45:47;;;;;;;9.37;2.90;;;;;;;;;;5113574;28;20418;-78
2023/10/23 05:48:13;;;;;;;16.90;3.90;;;;;;;;;;5113325;28;20439;-78
2023/10/23 05:50:39;;;;;;;11.70;2.83;;;;;;;;;;5095248;28;20841;-79
2023/10/23 05:53:05;;;;;;;5.83;3.17;;;;;;;;;;5113370;28;20502;-79
2023/10/23 05:55:34;;;;;;;4.83;3.20;;;;;;;;;;5095050;28;20458;-79
2023/10/23 05:58:00;;;;;;;5.53;2.90;;;;;;;;;;5113002;28;20460;-79
2023/10/23 06:00:27;;;;;;;8.77;3.53;;;;;;;;;;5113415;28;20397;-83
2023/10/23 06:02:53;;;;;;;9.00;3.37;;;;;;;;;;5095127;28;20418;-79
2023/10/23 06:05:19;;;;;;;8.57;3.00;;;;;;;;;;5113466;28;20411;-84
2023/10/23 06:07:45;;;;;;;5.63;3.03;;;;;;;;;;5113306;28;20414;-84
2023/10/23 06:10:10;;;;;;;7.70;3.10;;;;;;;;;;5113230;28;20736;-85
2023/10/23 06:12:36;;;;;;;8.30;3.30;;;;;;;;;;5113429;28;20418;-79
2023/10/23 06:15:03;;;;;;;11.17;3.37;;;;;;;;;;5112890;28;20503;-86
2023/10/23 06:17:29;;;;;;;16.30;3.63;;;;;;;;;;5113242;28;20454;-79
2023/10/23 06:19:55;;;;;;;10.90;3.80;;;;;;;;;;5112964;28;20464;-79
2023/10/23 06:22:20;;;;;;;34.03;5.23;;;;;;;;;;5113300;28;20398;-87
2023/10/23 06:24:46;;;;;;;26.83;4.00;;;;;;;;;;5113087;28;20405;-82
2023/10/23 06:27:12;;;;;;;19.67;4.57;;;;;;;;;;5113165;28;20442;-82
2023/10/23 06:29:38;;;;;;;5.63;3.17;;;;;;;;;;5112620;28;20444;-79
2023/10/23 06:32:04;;;;;;;5.40;2.87;;;;;;;;;;5094812;28;20414;-81
2023/10/23 06:34:30;;;;;;;12.00;3.87;;;;;;;;;;5113059;28;20416;-79
2023/10/23 06:36:56;;;;;;;22.30;4.23;;;;;;;;;;5094638;28;20474;-83
2023/10/23 06:39:22;;;;;;;13.60;4.10;;;;;;;;;;5112785;28;20426;-79
2023/10/23 06:41:50;;;;;;;26.30;4.87;;;;;;;;;;5113236;28;20407;-80
2023/10/23 06:44:17;;;;;;;14.60;4.30;;;;;;;;;;5113007;28;20407;-78
2023/10/23 06:46:43;;;;;;;8.07;4.50;;;;;;;;;;5112849;28;20394;-83
2023/10/23 06:49:09;;;;;;;14.87;5.37;;;;;;;;;;5112884;28;20397;-79
2023/10/23 06:51:36;;;;;;;24.00;3.97;;;;;;;;;;5112760;28;20407;-81
2023/10/23 06:54:03;;;;;;;18.83;4.90;;;;;;;;;;5094646;28;20446;-84
2023/10/23 06:56:29;;;;;;;30.87;5.90;;;;;;;;;;5094704;28;20806;-77
2023/10/23 06:58:55;;;;;;;22.10;5.63;;;;;;;;;;5094208;28;20479;-79
2023/10/23 07:01:21;;;;;;;21.13;5.60;;;;;;;;;;5110621;28;20411;-81
2023/10/23 07:03:47;;;;;;;27.90;6.70;;;;;;;;;;5101327;28;20431;-82
2023/10/23 07:06:13;;;;;;;26.20;6.87;;;;;;;;;;5112769;28;20414;-79
2023/10/23 07:08:39;;;;;;;22.37;5.40;;;;;;;;;;5112290;28;20401;-81
2023/10/23 07:11:15;;;;;;;25.50;4.40;;;;;;;;;;5096000;28;20899;-82
2023/10/23 07:13:41;;;;;;;31.77;6.67;;;;;;;;;;5095590;28;20987;-84
2023/10/23 07:16:07;;;;;;;22.53;5.80;;;;;;;;;;5095925;28;20408;-82
2023/10/23 07:18:33;;;;;;;48.13;7.30;;;;;;;;;;5095917;28;20464;-80
2023/10/23 07:21:03;;;;;;;36.63;7.43;;;;;;;;;;5107957;28;21036;-84
2023/10/23 07:23:29;;;;;;;24.47;6.20;;;;;;;;;;5095751;28;20515;-85
2023/10/23 07:26:01;;;;;;;31.50;7.37;;;;;;;;;;5098584;28;20419;-82
2023/10/23 07:28:27;;;;;;;44.67;8.10;;;;;;;;;;5115545;28;20985;-81
2023/10/23 07:30:53;;;;;;;29.00;6.70;;;;;;;;;;5116071;28;20407;-86
2023/10/23 07:33:19;;;;;;;18.67;5.93;;;;;;;;;;5115979;28;20421;-82
2023/10/23 07:35:45;;;;;;;42.57;9.03;;;;;;;;;;5097741;28;20419;-81
2023/10/23 07:38:11;;;;;;;36.23;8.83;;;;;;;;;;5097413;28;20470;-82
2023/10/23 07:40:46;;;;;;;27.77;7.87;;;;;;;;;;5115772;28;20414;-83
2023/10/23 07:43:12;;;;;;;42.87;8.20;;;;;;;;;;5115319;28;20398;-83
2023/10/23 07:45:39;;;;;;;33.07;8.70;;;;;;;;;;5115679;28;20423;-82
2023/10/23 07:48:05;;;;;;;43.80;8.97;;;;;;;;;;5115559;28;20449;-82
2023/10/23 07:50:35;;;;;;;35.13;9.50;;;;;;;;;;5115823;28;20937;-83
2023/10/23 07:53:01;;;;;;;45.60;9.30;;;;;;;;;;5115460;28;20428;-82
2023/10/23 07:55:27;;;;;;;52.90;9.33;;;;;;;;;;5115470;28;21025;-82
2023/10/23 07:57:53;;;;;;;21.27;6.50;;;;;;;;;;5115119;28;20478;-77
2023/10/23 08:00:19;;;;;;;57.93;11.80;;;;;;;;;;5115431;28;20401;-79
2023/10/23 08:02:45;;;;;;;23.43;7.90;;;;;;;;;;5115372;28;20437;-81
2023/10/23 08:05:10;;;;;;;30.27;7.90;;;;;;;;;;5115296;28;20483;-80
2023/10/23 08:07:36;;;;;;;46.43;11.00;;;;;;;;;;5115341;28;20475;-82
2023/10/23 08:10:03;;;;;;;19.13;8.87;;;;;;;;;;5115085;28;20411;-80
2023/10/23 08:12:29;;;;;;;55.77;14.57;;;;;;;;;;5114767;28;20468;-82
2023/10/23 08:14:56;;;;;;;38.57;10.33;;;;;;;;;;5115101;28;20406;-77
2023/10/23 08:17:21;;;;;;;20.67;6.83;;;;;;;;;;5095508;28;20548;-80
2023/10/23 08:19:47;;;;;;;18.20;6.77;;;;;;;;;;5093417;28;20887;-78
2023/10/23 08:22:13;;;;;;;41.70;11.00;;;;;;;;;;5094639;28;20502;-80
2023/10/23 08:24:39;;;;;;;47.93;12.43;;;;;;;;;;5094568;28;21001;-81
2023/10/23 08:27:05;;;;;;;49.37;10.87;;;;;;;;;;5094505;28;20416;-78
2023/10/23 08:29:31;;;;;;;19.27;7.80;;;;;;;;;;5093902;28;20416;-80
2023/10/23 08:31:58;;;;;;;38.47;9.50;;;;;;;;;;5094442;28;20896;-77
2023/10/23 08:34:24;;;;;;;51.60;9.80;;;;;;;;;;5094404;28;20457;-79
2023/10/23 08:36:50;;;;;;;50.03;10.63;;;;;;;;;;5100675;28;20410;-78
2023/10/23 08:39:19;;;;;;;38.40;10.10;;;;;;;;;;5114558;28;20581;-80
2023/10/23 08:41:45;;;;;;;43.27;10.77;;;;;;;;;;5114351;28;20474;-80
2023/10/23 08:44:11;;;;;;;28.33;9.20;;;;;;;;;;5114034;28;20884;-77
2023/10/23 08:46:37;;;;;;;15.13;8.60;;;;;;;;;;5114382;28;20402;-78
2023/10/23 08:49:04;;;;;;;23.10;8.13;;;;;;;;;;5106315;28;20443;-78
2023/10/23 08:51:33;;;;;;;33.03;8.93;;;;;;;;;;5098820;28;20437;-79
2023/10/23 08:54:01;;;;;;;20.27;7.67;;;;;;;;;;5099291;28;20436;-78
2023/10/23 08:56:28;;;;;;;22.63;7.57;;;;;;;;;;5082667;28;20432;-78
2023/10/23 08:58:58;;;;;;;18.70;6.83;;;;;;;;;;5098972;28;20475;-79
2023/10/23 09:01:24;;;;;;;14.90;7.40;;;;;;;;;;5098384;28;20504;-78
2023/10/23 09:03:50;;;;;;;23.60;7.83;;;;;;;;;;5098797;28;20438;-78
2023/10/23 09:06:19;;;;;;;22.90;7.20;;;;;;;;;;5098305;28;20425;-79
2023/10/23 09:08:45;;;;;;;19.80;6.47;;;;;;;;;;5098436;28;20439;-79
2023/10/23 09:11:11;;;;;;;18.13;6.50;;;;;;;;;;5080731;28;21047;-80
2023/10/23 09:13:38;;;;;;;18.53;7.20;;;;;;;;;;5097321;28;20447;-80
2023/10/23 09:16:08;;;;;;;9.57;6.43;;;;;;;;;;5094224;28;20424;-79
2023/10/23 09:18:34;;;;;;;10.60;7.57;;;;;;;;;;5097366;28;20477;-80
2023/10/23 09:21:01;;;;;;;17.03;7.77;;;;;;;;;;5097235;28;20500;-78
2023/10/23 09:23:30;;;;;;;8.90;7.07;;;;;;;;;;5098101;28;20802;-78
2023/10/23 09:25:57;;;;;;;12.60;6.80;;;;;;;;;;5097971;28;20452;-80
2023/10/23 09:28:23;;;;;;;7.70;6.50;;;;;;;;;;5097377;28;20428;-80
2023/10/23 09:30:49;;;;;;;8.37;6.50;;;;;;;;;;5096179;28;20440;-78
2023/10/23 09:33:16;;;;;;;7.33;4.83;;;;;;;;;;5097646;28;20938;-80
2023/10/23 09:35:42;;;;;;;7.73;7.00;;;;;;;;;;5097817;28;20619;-80
2023/10/23 09:38:11;;;;;;;8.40;7.13;;;;;;;;;;5097830;28;20476;-80
2023/10/23 09:40:37;;;;;;;8.23;6.87;;;;;;;;;;5097252;28;20822;-81
2023/10/23 09:43:04;;;;;;;6.97;6.27;;;;;;;;;;5097501;28;20439;-80
2023/10/23 09:45:31;;;;;;;7.10;6.40;;;;;;;;;;5096299;28;20188;-79
2023/10/23 09:47:58;;;;;;;7.30;5.80;;;;;;;;;;5097450;28;20453;-80
2023/10/23 09:50:25;;;;;;;5.23;4.20;;;;;;;;;;5079599;28;20428;-78
2023/10/23 09:52:52;;;;;;;4.33;3.93;;;;;;;;;;5097762;28;20433;-78
2023/10/23 09:55:21;;;;;;;5.60;4.57;;;;;;;;;;5097635;28;20430;-79
2023/10/23 09:57:48;;;;;;;4.07;3.30;;;;;;;;;;5096895;28;20530;-79
2023/10/23 10:00:14;;;;;;;3.53;2.60;;;;;;;;;;5096843;28;20429;-79
2023/10/23 10:03:00;;;;;;;3.00;2.43;;;;;;;;;;5097299;28;20441;-81
2023/10/23 10:05:27;;;;;;;3.30;3.00;;;;;;;;;;5096248;28;20424;-79
2023/10/23 10:07:58;;;;;;;4.20;3.30;;;;;;;;;;5097074;28;20468;-80
2023/10/23 10:10:26;;;;;;;3.97;2.27;;;;;;;;;;5097416;28;20441;-79
2023/10/23 10:12:53;;;;;;;4.97;2.60;;;;;;;;;;5096589;28;20511;-79
2023/10/23 10:15:19;;;;;;;3.70;3.17;;;;;;;;;;5097778;28;20422;-79
2023/10/23 10:17:46;;;;;;;3.17;2.73;;;;;;;;;;5097219;28;20491;-78
2023/10/23 10:20:12;;;;;;;3.97;2.17;;;;;;;;;;5096998;28;20476;-79
2023/10/23 10:22:40;;;;;;;2.80;2.40;;;;;;;;;;5097496;28;20438;-78
2023/10/23 10:25:06;;;;;;;3.10;1.90;;;;;;;;;;5097058;28;20448;-78
2023/10/23 10:27:33;;;;;;;3.70;2.57;;;;;;;;;;5096515;28;20430;-80
2023/10/23 10:30:05;;;;;;;4.33;3.03;;;;;;;;;;5097053;28;20434;-78
2023/10/23 10:32:35;;;;;;;5.40;2.53;;;;;;;;;;5096782;28;20434;-78
2023/10/23 10:35:03;;;;;;;3.20;2.70;;;;;;;;;;5097961;28;20438;-77
2023/10/23 10:37:29;;;;;;;2.90;2.03;;;;;;;;;;5097039;28;20461;-79
2023/10/23 10:39:55;;;;;;;3.20;2.53;;;;;;;;;;5097641;28;20895;-80
2023/10/23 10:42:23;;;;;;;3.00;2.70;;;;;;;;;;5096876;28;20462;-79
2023/10/23 10:44:59;;;;;;;3.70;2.70;;;;;;;;;;5101462;28;20175;-79
2023/10/23 10:47:44;;;;;;;4.30;2.53;;;;;;;;;;5101600;28;20939;-78
2023/10/23 10:50:10;;;;;;;3.10;2.10;;;;;;;;;;5100961;28;20544;-79
2023/10/23 10:52:36;;;;;;;5.07;3.30;;;;;;;;;;5101249;28;20471;-78
2023/10/23 10:55:09;;;;;;;4.60;3.70;;;;;;;;;;5091427;28;20784;-80
2023/10/23 10:57:36;;;;;;;3.67;2.73;;;;;;;;;;5099966;28;20480;-78
2023/10/23 11:00:03;;;;;;;3.97;3.47;;;;;;;;;;5100695;28;20505;-78
2023/10/23 11:02:29;;;;;;;3.97;3.07;;;;;;;;;;5101139;28;20787;-78
2023/10/23 11:04:55;;;;;;;3.93;3.30;;;;;;;;;;5100287;28;20436;-79
2023/10/23 11:07:22;;;;;;;4.00;3.60;;;;;;;;;;5100736;28;20529;-79
2023/10/23 11:09:52;;;;;;;4.20;2.70;;;;;;;;;;5100615;28;20959;-79
2023/10/23 11:12:18;;;;;;;4.33;3.00;;;;;;;;;;5082052;28;20430;-79
2023/10/23 11:14:45;;;;;;;6.00;2.70;;;;;;;;;;5100253;28;20468;-80
2023/10/23 11:17:10;;;;;;;3.20;2.27;;;;;;;;;;5082034;28;20449;-79
2023/10/23 11:19:36;;;;;;;3.93;2.70;;;;;;;;;;5100436;28;20471;-79
2023/10/23 11:22:06;;;;;;;5.10;3.07;;;;;;;;;;5100068;28;20513;-79
2023/10/23 11:24:32;;;;;;;5.93;3.30;;;;;;;;;;5082359;28;20279;-79
2023/10/23 11:26:58;;;;;;;3.97;3.03;;;;;;;;;;5100153;28;20523;-80
2023/10/23 11:29:24;;;;;;;6.47;2.83;;;;;;;;;;5099771;28;20640;-80
2023/10/23 11:31:52;;;;;;;4.43;3.30;;;;;;;;;;5100342;28;20196;-80
2023/10/23 11:34:18;;;;;;;5.27;3.17;;;;;;;;;;5100125;28;20224;-79
2023/10/23 11:36:44;;;;;;;5.00;2.63;;;;;;;;;;5081452;28;20435;-80
2023/10/23 11:39:13;;;;;;;4.17;2.93;;;;;;;;;;5099407;28;20489;-80
2023/10/23 11:41:39;;;;;;;4.20;2.53;;;;;;;;;;5090886;28;20581;-80
2023/10/23 11:44:05;;;;;;;4.80;3.87;;;;;;;;;;5099204;28;20509;-80
2023/10/23 11:46:33;;;;;;;4.60;3.43;;;;;;;;;;5099957;28;20193;-80
2023/10/23 11:49:01;;;;;;;7.17;4.30;;;;;;;;;;5099632;28;21002;-80
2023/10/23 11:51:26;;;;;;;5.00;2.43;;;;;;;;;;5099491;28;20834;-79
2023/10/23 11:53:53;;;;;;;4.13;2.13;;;;;;;;;;5097653;28;20534;-80
2023/10/23 11:56:19;;;;;;;4.10;3.53;;;;;;;;;;5099570;28;20800;-80
2023/10/23 11:58:45;;;;;;;4.73;2.50;;;;;;;;;;5098849;28;20484;-81
2023/10/23 12:01:11;;;;;;;3.83;2.70;;;;;;;;;;5099707;28;23157;-80
2023/10/23 12:03:37;;;;;;;5.13;3.03;;;;;;;;;;5099274;28;20469;-80
2023/10/23 12:06:05;;;;;;;3.07;2.40;;;;;;;;;;5099265;28;20424;-80
2023/10/23 12:08:31;;;;;;;4.03;2.47;;;;;;;;;;5099555;28;20593;-80
2023/10/23 12:10:57;;;;;;;3.60;2.23;;;;;;;;;;5099735;28;20527;-80
2023/10/23 12:13:23;;;;;;;4.20;2.47;;;;;;;;;;5088830;28;20218;-80
2023/10/23 12:15:49;;;;;;;2.63;2.30;;;;;;;;;;5099333;28;20436;-80
2023/10/23 12:18:15;;;;;;;3.30;2.40;;;;;;;;;;5098668;28;20477;-80
2023/10/23 12:20:40;;;;;;;2.50;2.30;;;;;;;;;;5098753;28;20700;-80
2023/10/23 12:23:06;;;;;;;4.03;2.47;;;;;;;;;;5099742;28;20438;-80
2023/10/23 12:25:32;;;;;;;3.77;2.17;;;;;;;;;;5098731;28;20184;-80
2023/10/23 12:27:58;;;;;;;2.67;2.17;;;;;;;;;;5098815;28;20176;-80
2023/10/23 12:30:24;;;;;;;2.47;1.60;;;;;;;;;;5102359;28;20506;-80
2023/10/23 12:32:51;;;;;;;4.47;2.73;;;;;;;;;;5106510;28;20433;-82
2023/10/23 12:35:17;;;;;;;3.43;2.33;;;;;;;;;;5098836;28;20172;-81
2023/10/23 12:37:43;;;;;;;2.93;2.20;;;;;;;;;;5098548;28;20481;-81
2023/10/23 12:40:10;;;;;;;3.73;1.57;;;;;;;;;;5099822;28;20184;-81
2023/10/23 12:42:37;;;;;;;3.40;2.30;;;;;;;;;;5100461;28;20494;-81
2023/10/23 12:45:03;;;;;;;4.20;2.37;;;;;;;;;;5100116;28;20437;-80
2023/10/23 12:47:29;;;;;;;2.30;1.57;;;;;;;;;;5082815;28;20417;-80
2023/10/23 12:49:55;;;;;;;3.13;2.00;;;;;;;;;;5099447;28;20433;-80
2023/10/23 12:52:21;;;;;;;4.43;2.60;;;;;;;;;;5099869;28;20434;-80
2023/10/23 12:54:47;;;;;;;4.43;2.27;;;;;;;;;;5100202;28;20187;-80
2023/10/23 12:57:12;;;;;;;4.37;2.57;;;;;;;;;;5080851;28;20615;-81
2023/10/23 12:59:38;;;;;;;3.77;2.00;;;;;;;;;;5099497;28;20446;-81
2023/10/23 13:02:05;;;;;;;4.27;1.97;;;;;;;;;;5100644;28;20541;-81
2023/10/23 13:04:31;;;;;;;6.17;2.50;;;;;;;;;;5088507;28;20431;-80
2023/10/23 13:06:57;;;;;;;3.43;2.23;;;;;;;;;;5098147;28;20512;-80
2023/10/23 13:09:23;;;;;;;3.23;2.10;;;;;;;;;;5099915;28;20530;-79
2023/10/23 13:11:48;;;;;;;3.60;1.97;;;;;;;;;;5099574;28;20428;-80
2023/10/23 13:14:14;;;;;;;5.47;3.10;;;;;;;;;;5099603;28;20937;-80
2023/10/23 13:16:40;;;;;;;5.23;2.23;;;;;;;;;;5099863;28;20933;-80
2023/10/23 13:19:07;;;;;;;3.17;2.23;;;;;;;;;;5099564;28;20573;-80
2023/10/23 13:21:33;;;;;;;3.00;2.67;;;;;;;;;;5081024;28;20590;-80
2023/10/23 13:23:59;;;;;;;4.07;2.00;;;;;;;;;;5099074;28;20822;-81
2023/10/23 13:26:25;;;;;;;2.33;2.07;;;;;;;;;;5099767;28;20428;-80
2023/10/23 13:28:51;;;;;;;4.73;2.80;;;;;;;;;;5099600;28;20194;-81
2023/10/23 13:31:17;;;;;;;3.90;2.43;;;;;;;;;;5099084;28;20445;-81
2023/10/23 13:33:43;;;;;;;2.90;1.90;;;;;;;;;;5100126;28;20452;-80
2023/10/23 13:36:09;;;;;;;3.97;1.87;;;;;;;;;;5099744;28;20952;-80
2023/10/23 13:38:35;;;;;;;7.47;2.13;;;;;;;;;;5098982;28;20480;-80
2023/10/23 13:41:02;;;;;;;3.63;2.80;;;;;;;;;;5099823;28;20468;-80
2023/10/23 13:43:28;;;;;;;5.70;2.93;;;;;;;;;;5099535;28;20523;-80
2023/10/23 13:45:54;;;;;;;7.13;2.20;;;;;;;;;;5099402;28;21539;-81
2023/10/23 13:48:20;;;;;;;3.80;1.63;;;;;;;;;;5098205;28;20439;-80
2023/10/23 13:50:49;;;;;;;3.00;2.00;;;;;;;;;;5099708;28;20523;-80
2023/10/23 13:53:17;;;;;;;4.07;2.37;;;;;;;;;;5098810;28;20451;-80
2023/10/23 13:55:43;;;;;;;6.70;2.20;;;;;;;;;;5081279;28;20454;-86
2023/10/23 13:58:09;;;;;;;3.83;1.47;;;;;;;;;;5093349;28;20473;-85
2023/10/23 14:00:35;;;;;;;3.47;1.57;;;;;;;;;;5088009;28;20647;-81
2023/10/23 14:03:01;;;;;;;3.00;1.77;;;;;;;;;;5079591;28;20522;-80
2023/10/23 14:05:27;;;;;;;4.07;2.20;;;;;;;;;;5098087;28;20195;-82
2023/10/23 14:07:53;;;;;;;2.90;1.87;;;;;;;;;;5100391;28;20450;-80
2023/10/23 14:10:19;;;;;;;2.90;1.27;;;;;;;;;;5099910;28;20439;-81
2023/10/23 14:12:46;;;;;;;5.10;1.40;;;;;;;;;;5097479;28;20436;-83
2023/10/23 14:15:12;;;;;;;3.80;1.60;;;;;;;;;;5096998;28;20508;-82
2023/10/23 14:17:38;;;;;;;4.17;2.27;;;;;;;;;;5097833;28;20483;-83
2023/10/23 14:20:08;;;;;;;3.07;1.20;;;;;;;;;;5100621;28;20841;-84
2023/10/23 14:22:34;;;;;;;2.97;1.73;;;;;;;;;;5100730;28;20483;-84
2023/10/23 14:25:00;;;;;;;4.67;2.47;;;;;;;;;;5101477;28;20476;-84
2023/10/23 14:27:26;;;;;;;3.50;2.20;;;;;;;;;;5103138;28;20436;-85
2023/10/23 14:29:52;;;;;;;1.97;1.07;;;;;;;;;;5105359;28;20755;-85
2023/10/23 14:32:21;;;;;;;2.87;1.40;;;;;;;;;;5105996;28;20429;-84
2023/10/23 14:34:50;;;;;;;2.50;1.47;;;;;;;;;;5092312;28;20437;-85
2023/10/23 14:37:16;;;;;;;2.43;1.40;;;;;;;;;;5106181;28;20433;-85